Time;durP1;ratioP1;P1;durP2;ratioP2;P2;SDS_P1;SDS_P2;PMS_P1;PMS_P2;Temp;Humidity;BMP_temperature;BMP_pressure;BME280_temperature;BME280_humidity;BME280_pressure;Samples;Min_cycle;Max_cycle;Signal;HPM_P1;HPM_P2
2023/08/09 00:01:06;;;;;;;6.97;3.00;;;;;;;14.00;93.13;100850.28;5015872;28;20595;-70
2023/08/09 00:03:33;;;;;;;1.93;1.90;;;;;;;14.10;92.37;100858.19;5015784;28;20205;-70
2023/08/09 00:05:59;;;;;;;1.30;1.30;;;;;;;14.04;92.88;100856.19;5015745;28;20193;-70
2023/08/09 00:08:26;;;;;;;1.30;1.30;;;;;;;14.00;92.94;100857.53;5016346;28;20227;-70
2023/08/09 00:10:52;;;;;;;1.60;1.60;;;;;;;13.96;93.02;100851.63;5015950;28;20259;-70
2023/08/09 00:13:19;;;;;;;2.00;2.00;;;;;;;13.95;93.07;100854.53;5015565;28;20266;-71
2023/08/09 00:15:45;;;;;;;1.97;1.97;;;;;;;13.96;93.00;100858.91;5015884;28;20243;-70
2023/08/09 00:18:12;;;;;;;3.33;3.33;;;;;;;13.97;93.20;100866.78;5015563;28;20192;-70
2023/08/09 00:20:38;;;;;;;2.80;2.70;;;;;;;14.02;92.92;100877.00;5014856;28;20200;-70
2023/08/09 00:23:05;;;;;;;2.57;2.57;;;;;;;14.14;92.32;100883.72;5015710;28;20169;-70
2023/08/09 00:25:31;;;;;;;2.90;2.80;;;;;;;14.07;92.07;100885.41;5015701;28;20246;-70
2023/08/09 00:27:57;;;;;;;2.40;2.40;;;;;;;14.03;92.58;100886.75;5015679;28;20193;-70
2023/08/09 00:30:24;;;;;;;2.77;2.77;;;;;;;13.99;92.50;100886.28;5015245;28;20195;-70
2023/08/09 00:32:51;;;;;;;2.97;2.97;;;;;;;13.95;92.60;100882.25;5015292;28;20196;-70
2023/08/09 00:35:17;;;;;;;3.23;3.13;;;;;;;13.94;92.93;100899.38;5016274;28;20208;-70
2023/08/09 00:37:44;;;;;;;4.20;4.10;;;;;;;14.14;91.87;100894.47;5015445;28;20188;-70
2023/08/09 00:40:13;;;;;;;3.63;3.50;;;;;;;14.10;91.79;100893.97;5015442;28;20196;-70
2023/08/09 00:42:41;;;;;;;4.27;4.07;;;;;;;13.97;92.43;100884.75;5015107;28;20189;-70
2023/08/09 00:45:08;;;;;;;3.70;3.40;;;;;;;13.91;92.68;100875.53;5030247;28;20216;-70
2023/08/09 00:47:36;;;;;;;2.67;2.67;;;;;;;13.90;92.83;100887.28;5015007;28;20275;-70
2023/08/09 00:50:03;;;;;;;2.80;2.80;;;;;;;13.89;92.73;100887.44;5014978;28;20193;-70
2023/08/09 00:52:29;;;;;;;2.33;2.23;;;;;;;13.89;92.80;100874.00;5014881;28;20212;-70
2023/08/09 00:54:57;;;;;;;2.17;2.17;;;;;;;13.88;93.00;100877.69;5013593;28;20223;-70
2023/08/09 00:57:23;;;;;;;2.17;2.17;;;;;;;13.91;93.06;100882.75;5015140;28;20200;-70
2023/08/09 00:59:50;;;;;;;2.17;2.17;;;;;;;13.93;93.18;100888.78;5014810;28;20551;-70
2023/08/09 01:02:16;;;;;;;1.70;1.70;;;;;;;13.93;92.97;100894.16;5013560;28;20604;-70
2023/08/09 01:04:43;;;;;;;1.57;1.57;;;;;;;13.96;92.69;100909.97;5013736;28;20220;-70
2023/08/09 01:07:17;;;;;;;1.40;1.40;;;;;;;13.93;93.01;100903.06;5014697;28;20661;-70
2023/08/09 01:10:12;;;;;;;1.40;1.40;;;;;;;13.92;92.83;100896.00;5013420;28;20206;-70
2023/08/09 01:12:42;;;;;;;1.10;1.10;;;;;;;13.92;93.07;100897.88;5013166;28;20224;-70
2023/08/09 01:15:12;;;;;;;1.10;1.10;;;;;;;13.93;93.11;100902.22;5014496;28;20217;-70
2023/08/09 01:17:40;;;;;;;0.83;0.83;;;;;;;13.92;92.89;100901.38;5013635;28;20200;-70
2023/08/09 01:20:11;;;;;;;1.00;1.00;;;;;;;13.94;92.90;100903.91;5014444;28;20220;-70
2023/08/09 01:22:44;;;;;;;1.10;1.10;;;;;;;13.92;92.83;100901.38;5013214;28;20196;-70
2023/08/09 01:25:11;;;;;;;1.00;1.00;;;;;;;13.94;92.81;100898.53;5014578;28;20227;-70
2023/08/09 01:27:38;;;;;;;1.10;1.10;;;;;;;13.94;92.90;100911.97;5014410;28;20165;-70
2023/08/09 01:30:07;;;;;;;1.20;1.20;;;;;;;13.92;92.98;100906.75;5014536;28;20655;-70
2023/08/09 01:32:34;;;;;;;1.20;1.20;;;;;;;13.97;92.70;100909.78;5014168;28;20208;-70
2023/08/09 01:35:01;;;;;;;1.00;1.00;;;;;;;13.99;92.29;100915.00;5014121;28;20219;-70
2023/08/09 01:37:50;;;;;;;1.23;1.23;;;;;;;13.98;92.30;100916.00;5013040;28;20188;-70
2023/08/09 01:40:18;;;;;;;0.93;0.93;;;;;;;13.96;92.19;100926.09;5014499;28;20188;-70
2023/08/09 01:42:45;;;;;;;1.77;1.77;;;;;;;14.04;91.79;100937.69;5014131;28;20180;-70
2023/08/09 01:45:13;;;;;;;1.30;1.30;;;;;;;14.05;91.88;100935.81;5013996;28;20209;-70
2023/08/09 01:47:41;;;;;;;1.70;1.70;;;;;;;14.00;91.86;100938.19;5012810;28;20201;-70
2023/08/09 01:50:23;;;;;;;2.27;2.27;;;;;;;14.03;91.78;100943.22;5013030;28;20282;-70
2023/08/09 01:52:50;;;;;;;2.60;2.00;;;;;;;14.01;91.71;100945.22;5012690;28;20216;-70
2023/08/09 01:55:19;;;;;;;1.60;1.60;;;;;;;13.92;91.99;100941.69;5012644;28;20259;-70
2023/08/09 01:57:46;;;;;;;2.53;2.47;;;;;;;13.94;91.94;100931.63;5013476;28;20259;-70
2023/08/09 02:00:16;;;;;;;4.83;2.27;;;;;;;13.89;92.05;100936.66;5012575;28;20636;-70
2023/08/09 02:02:42;;;;;;;2.50;2.50;;;;;;;13.85;92.29;100934.47;5014057;28;20192;-70
2023/08/09 02:05:10;;;;;;;3.10;3.07;;;;;;;13.81;92.42;100933.13;5013956;28;20204;-70
2023/08/09 02:07:37;;;;;;;2.57;2.57;;;;;;;13.80;92.61;100923.38;5012737;28;20200;-70
2023/08/09 02:10:04;;;;;;;2.73;2.73;;;;;;;13.86;92.38;100923.56;5013938;28;20654;-70
2023/08/09 02:12:31;;;;;;;2.33;2.33;;;;;;;13.84;92.79;100925.56;5013441;28;20215;-70
2023/08/09 02:14:57;;;;;;;2.70;2.70;;;;;;;13.84;92.76;100924.72;5013603;28;20282;-70
2023/08/09 02:17:24;;;;;;;2.50;2.50;;;;;;;13.89;92.44;100933.97;5013886;28;20185;-70
2023/08/09 02:19:50;;;;;;;2.30;2.20;;;;;;;13.90;91.83;100942.88;4996126;28;20224;-70
2023/08/09 02:22:17;;;;;;;2.90;2.83;;;;;;;13.85;91.79;100943.38;5012288;28;20193;-70
2023/08/09 02:24:44;;;;;;;2.87;2.77;;;;;;;13.80;91.49;100944.88;5013442;28;20323;-70
2023/08/09 02:27:11;;;;;;;2.40;2.40;;;;;;;13.82;91.44;100945.56;5013008;28;20202;-70
2023/08/09 02:29:37;;;;;;;2.70;2.70;;;;;;;13.79;91.57;100957.47;5020025;28;20659;-70
2023/08/09 02:32:04;;;;;;;2.63;2.63;;;;;;;13.73;91.77;100948.25;5018640;28;20238;-70
2023/08/09 02:34:30;;;;;;;2.63;2.63;;;;;;;13.70;92.11;100948.59;5019888;28;20208;-70
2023/08/09 02:36:57;;;;;;;2.20;2.20;;;;;;;13.69;92.20;100956.81;5020203;28;20191;-70
2023/08/09 02:39:24;;;;;;;2.20;2.20;;;;;;;13.66;92.21;100951.78;5018665;28;20594;-70
2023/08/09 02:41:50;;;;;;;2.50;2.50;;;;;;;13.63;92.55;100950.25;5020415;28;20242;-70
2023/08/09 02:44:18;;;;;;;2.40;2.40;;;;;;;13.61;92.38;100952.28;5019804;28;20208;-70
2023/08/09 02:46:44;;;;;;;2.40;2.40;;;;;;;13.58;92.51;100957.09;5020695;28;20181;-70
2023/08/09 02:49:11;;;;;;;2.00;2.00;;;;;;;13.56;92.49;100956.44;5018615;28;20287;-70
2023/08/09 02:51:38;;;;;;;2.70;2.67;;;;;;;13.56;92.95;100965.34;5019764;28;20209;-70
2023/08/09 02:54:05;;;;;;;2.10;2.10;;;;;;;13.56;92.94;100968.03;5018490;28;20235;-70
2023/08/09 02:56:33;;;;;;;2.20;2.20;;;;;;;13.56;93.05;100973.41;5019733;28;20196;-70
2023/08/09 02:59:00;;;;;;;1.83;1.83;;;;;;;13.56;93.09;100981.47;5018520;28;20199;-70
2023/08/09 03:01:27;;;;;;;1.50;1.50;;;;;;;13.60;93.12;100988.19;5020020;28;20176;-70
2023/08/09 03:03:55;;;;;;;4.30;4.30;;;;;;;13.79;92.65;100988.91;5034862;28;20239;-70
2023/08/09 03:06:22;;;;;;;4.20;4.10;;;;;;;13.77;92.26;100986.38;5018384;28;20196;-70
2023/08/09 03:08:49;;;;;;;4.23;4.23;;;;;;;13.85;91.67;100989.06;5020191;28;20193;-70
2023/08/09 03:11:21;;;;;;;4.73;4.40;;;;;;;13.76;91.94;100991.91;5018827;28;20196;-70
2023/08/09 03:13:48;;;;;;;4.10;4.10;;;;;;;13.71;92.21;100995.06;5018376;28;20222;-70
2023/08/09 03:16:15;;;;;;;4.23;4.23;;;;;;;13.67;92.52;100983.81;5018342;28;20189;-70
2023/08/09 03:18:41;;;;;;;4.67;4.57;;;;;;;13.64;91.97;100994.06;5019548;28;20196;-70
2023/08/09 03:21:08;;;;;;;4.70;4.70;;;;;;;13.75;91.95;100999.13;5018289;28;20749;-70
2023/08/09 03:23:36;;;;;;;4.53;4.53;;;;;;;13.69;92.27;100991.72;5018612;28;20208;-70
2023/08/09 03:26:03;;;;;;;5.07;4.97;;;;;;;13.78;91.64;100995.28;5018237;28;20204;-70
2023/08/09 03:28:31;;;;;;;6.93;5.77;;;;;;;13.71;92.01;100995.06;5018793;28;20192;-70
2023/08/09 03:30:58;;;;;;;5.03;4.97;;;;;;;13.71;92.11;100995.06;5018455;28;20601;-70
2023/08/09 03:33:26;;;;;;;5.43;5.43;;;;;;;13.82;91.62;100993.94;5018311;28;20221;-70
2023/08/09 03:35:53;;;;;;;6.07;5.87;;;;;;;13.81;91.38;100992.25;5019397;28;20191;-70
2023/08/09 03:38:19;;;;;;;6.47;6.17;;;;;;;13.78;91.64;100996.13;5018126;28;20199;-70
2023/08/09 03:40:46;;;;;;;6.07;5.97;;;;;;;13.76;91.47;101003.50;5014302;28;20250;-70
2023/08/09 03:43:13;;;;;;;6.23;6.13;;;;;;;13.78;91.43;101004.19;5016176;28;20187;-70
2023/08/09 03:45:39;;;;;;;6.17;5.97;;;;;;;13.80;91.23;101020.97;5016736;28;20188;-70
2023/08/09 03:48:06;;;;;;;6.47;6.23;;;;;;;13.77;91.19;101018.63;5015185;28;20558;-70
2023/08/09 03:50:33;;;;;;;6.53;6.43;;;;;;;13.65;91.82;101020.78;5014858;28;20200;-70
2023/08/09 03:53:00;;;;;;;5.90;5.90;;;;;;;13.63;91.72;101030.00;5014947;28;20229;-70
2023/08/09 03:55:26;;;;;;;6.53;6.33;;;;;;;13.61;91.87;101029.34;5016086;28;20169;-70
2023/08/09 03:57:53;;;;;;;6.80;6.70;;;;;;;13.61;91.70;101026.66;5014670;28;20222;-70
2023/08/09 04:00:22;;;;;;;7.07;6.57;;;;;;;13.62;92.13;101029.16;5014984;28;20607;-70
2023/08/09 04:02:49;;;;;;;6.63;6.53;;;;;;;13.62;92.13;101033.72;5031977;28;20200;-70
2023/08/09 04:05:16;;;;;;;6.83;6.53;;;;;;;13.62;91.91;101033.72;5014568;28;20585;-70
2023/08/09 04:07:43;;;;;;;7.70;7.00;;;;;;;13.70;91.22;101041.78;5015873;28;20184;-70
2023/08/09 04:10:09;;;;;;;7.07;6.77;;;;;;;13.65;91.38;101042.28;5014457;28;20200;-70
2023/08/09 04:12:36;;;;;;;6.10;6.00;;;;;;;13.64;91.42;101054.03;5015460;28;20221;-70
2023/08/09 04:15:04;;;;;;;8.33;7.53;;;;;;;13.66;91.21;101054.69;5015587;28;20211;-70
2023/08/09 04:17:34;;;;;;;6.93;6.73;;;;;;;13.66;90.99;101060.06;5015598;28;20196;-70
2023/08/09 04:20:01;;;;;;;7.23;6.83;;;;;;;13.61;90.96;101067.78;5014358;28;20196;-70
2023/08/09 04:22:28;;;;;;;13.53;6.30;;;;;;;13.58;91.52;101073.47;5014270;28;20188;-70
2023/08/09 04:24:54;;;;;;;6.70;6.47;;;;;;;13.60;91.02;101071.47;5015678;28;20219;-70
2023/08/09 04:27:22;;;;;;;6.63;6.43;;;;;;;13.67;90.98;101061.75;5015445;28;20199;-70
2023/08/09 04:29:48;;;;;;;7.53;7.23;;;;;;;13.62;90.92;101064.06;5015605;28;20656;-70
2023/08/09 04:32:15;;;;;;;7.93;7.50;;;;;;;13.53;90.98;101070.44;5015500;28;20616;-70
2023/08/09 04:34:41;;;;;;;7.80;7.23;;;;;;;13.50;90.95;101068.06;5015193;28;20271;-70
2023/08/09 04:37:07;;;;;;;7.47;7.17;;;;;;;13.53;91.03;101077.66;5015506;28;20247;-70
2023/08/09 04:39:34;;;;;;;7.17;7.07;;;;;;;13.44;90.93;101076.78;5015482;28;20553;-70
2023/08/09 04:42:02;;;;;;;8.70;8.37;;;;;;;13.48;90.86;101086.19;5015145;28;20251;-70
2023/08/09 04:44:30;;;;;;;8.70;8.30;;;;;;;13.44;90.67;101084.84;5015032;28;20267;-70
2023/08/09 04:46:58;;;;;;;8.77;8.27;;;;;;;13.37;91.29;101083.78;5015354;28;20604;-70
2023/08/09 04:49:26;;;;;;;8.97;8.40;;;;;;;13.31;91.39;101079.06;5015026;28;20193;-70
2023/08/09 04:51:53;;;;;;;7.43;7.13;;;;;;;13.30;91.64;101089.97;5015041;28;20212;-70
2023/08/09 04:54:19;;;;;;;5.40;5.30;;;;;;;13.29;91.95;101089.13;5015361;28;20551;-70
2023/08/09 04:56:46;;;;;;;5.67;5.03;;;;;;;13.31;92.18;101089.81;5015607;28;20193;-70
2023/08/09 04:59:12;;;;;;;5.73;5.63;;;;;;;13.32;92.29;101091.50;5014800;28;20670;-70
2023/08/09 05:01:38;;;;;;;6.63;6.33;;;;;;;13.34;92.25;101084.13;5014795;28;20528;-70
2023/08/09 05:04:05;;;;;;;5.43;5.33;;;;;;;13.36;92.16;101095.56;5014659;28;20212;-70
2023/08/09 05:06:31;;;;;;;7.60;7.17;;;;;;;13.40;92.27;101088.84;5014690;28;20196;-70
2023/08/09 05:08:58;;;;;;;10.27;7.10;;;;;;;13.42;92.16;101086.00;5014639;28;20197;-70
2023/08/09 05:11:24;;;;;;;7.00;6.70;;;;;;;13.43;92.38;101099.28;5014760;28;20184;-70
2023/08/09 05:13:50;;;;;;;10.77;9.73;;;;;;;13.55;91.58;101095.28;5014760;28;20263;-70
2023/08/09 05:16:17;;;;;;;12.67;9.17;;;;;;;13.54;91.45;101096.28;5014772;28;20588;-70
2023/08/09 05:18:43;;;;;;;9.30;8.70;;;;;;;13.60;90.84;101105.56;5014465;28;20595;-70
2023/08/09 05:21:10;;;;;;;9.67;8.87;;;;;;;13.64;90.38;101097.00;5014439;28;20199;-70
2023/08/09 05:23:36;;;;;;;9.77;9.07;;;;;;;13.62;90.26;101108.94;5014329;28;20205;-70
2023/08/09 05:26:03;;;;;;;9.83;9.23;;;;;;;13.56;90.49;101120.31;5014401;28;20701;-70
2023/08/09 05:28:29;;;;;;;9.80;8.73;;;;;;;13.41;90.96;101117.38;5014226;28;20250;-70
2023/08/09 05:30:55;;;;;;;8.00;7.60;;;;;;;13.38;91.20;101125.75;5014762;28;20583;-70
2023/08/09 05:33:22;;;;;;;7.57;7.37;;;;;;;13.38;91.52;101125.75;5014593;28;20683;-70
2023/08/09 05:35:48;;;;;;;8.10;7.60;;;;;;;13.37;91.45;101121.38;5014166;28;20262;-70
2023/08/09 05:38:15;;;;;;;11.60;8.73;;;;;;;13.37;91.35;101121.38;5014140;28;20721;-70
2023/08/09 05:40:41;;;;;;;8.53;7.97;;;;;;;13.40;91.92;101130.97;5014319;28;20258;-70
2023/08/09 05:43:08;;;;;;;8.23;7.83;;;;;;;13.40;91.88;101131.81;5013959;28;20195;-70
2023/08/09 05:45:34;;;;;;;7.23;7.00;;;;;;;13.44;92.23;101132.34;5013901;28;20192;-70
2023/08/09 05:48:00;;;;;;;7.27;7.07;;;;;;;13.48;91.94;101137.25;5014015;28;20235;-70
2023/08/09 05:50:27;;;;;;;9.70;9.00;;;;;;;13.65;91.32;101146.22;5013898;28;20235;-70
2023/08/09 05:52:54;;;;;;;11.93;10.70;;;;;;;13.65;90.99;101144.38;5013809;28;20216;-70
2023/08/09 05:55:20;;;;;;;11.50;10.43;;;;;;;13.66;90.74;101150.59;5013748;28;20213;-70
2023/08/09 05:57:47;;;;;;;13.77;10.50;;;;;;;13.68;90.73;101146.72;5014110;28;20184;-70
2023/08/09 06:00:15;;;;;;;15.57;10.33;;;;;;;13.67;90.32;101142.34;5013998;28;20223;-70
2023/08/09 06:02:44;;;;;;;13.07;11.83;;;;;;;13.62;90.76;101151.91;5013249;28;20188;-70
2023/08/09 06:05:26;;;;;;;13.47;12.20;;;;;;;13.60;91.02;101161.97;5014651;28;20552;-70
2023/08/09 06:07:53;;;;;;;17.57;11.70;;;;;;;13.67;90.87;101163.84;5014275;28;20255;-70
2023/08/09 06:10:20;;;;;;;15.80;13.90;;;;;;;13.76;90.58;101163.88;5013618;28;20180;-70
2023/08/09 06:12:47;;;;;;;16.03;13.37;;;;;;;13.66;90.34;101167.53;5013635;28;20749;-70
2023/08/09 06:15:13;;;;;;;16.77;14.93;;;;;;;13.62;90.50;101168.84;5013521;28;20740;-70
2023/08/09 06:17:40;;;;;;;17.60;14.10;;;;;;;13.65;90.83;101168.56;5013746;28;20196;-70
2023/08/09 06:20:07;;;;;;;17.27;13.77;;;;;;;13.76;90.76;101180.00;5013797;28;20198;-70
2023/08/09 06:22:34;;;;;;;14.93;12.97;;;;;;;13.73;90.54;101173.13;5013501;28;20189;-70
2023/08/09 06:25:00;;;;;;;15.53;13.93;;;;;;;13.66;90.65;101177.47;5014370;28;20208;-70
2023/08/09 06:27:27;;;;;;;13.20;12.00;;;;;;;13.67;90.72;101187.19;5013512;28;20583;-70
2023/08/09 06:29:53;;;;;;;13.97;11.97;;;;;;;13.73;90.05;101187.41;5013468;28;20196;-70
2023/08/09 06:32:19;;;;;;;17.73;13.27;;;;;;;13.74;89.61;101190.94;5013710;28;20599;-70
2023/08/09 06:34:48;;;;;;;15.47;12.93;;;;;;;13.61;90.23;101193.22;5013504;28;20200;-70
2023/08/09 06:37:15;;;;;;;13.87;12.53;;;;;;;13.69;90.09;101202.16;5013407;28;20576;-70
2023/08/09 06:39:41;;;;;;;15.23;12.77;;;;;;;13.76;89.59;101205.03;5013888;28;20189;-70
2023/08/09 06:42:08;;;;;;;12.63;11.67;;;;;;;13.72;89.59;101207.22;5013364;28;20184;-70
2023/08/09 06:44:35;;;;;;;11.70;10.60;;;;;;;13.62;90.10;101208.34;5013282;28;20227;-70
2023/08/09 06:47:01;;;;;;;13.93;12.73;;;;;;;13.72;90.40;101209.88;5013925;28;20231;-70
2023/08/09 06:49:28;;;;;;;12.90;11.70;;;;;;;13.79;90.12;101212.75;5013331;28;20280;-70
2023/08/09 06:51:55;;;;;;;13.70;12.40;;;;;;;13.84;89.80;101209.59;5013274;28;20177;-70
2023/08/09 06:54:21;;;;;;;11.73;11.07;;;;;;;13.95;89.49;101212.88;5013087;28;20701;-70
2023/08/09 06:56:53;;;;;;;11.60;10.80;;;;;;;13.95;89.63;101212.88;5013290;28;20185;-70
2023/08/09 06:59:19;;;;;;;11.80;10.90;;;;;;;13.96;89.81;101202.97;5013456;28;20552;-70
2023/08/09 07:01:48;;;;;;;11.23;10.37;;;;;;;14.08;90.08;101215.09;5013159;28;20307;-70
2023/08/09 07:04:15;;;;;;;11.33;10.47;;;;;;;14.14;89.54;101220.66;5013045;28;20212;-70
2023/08/09 07:06:42;;;;;;;10.97;9.83;;;;;;;14.17;89.55;101222.19;5013344;28;20189;-70
2023/08/09 07:09:11;;;;;;;9.97;9.57;;;;;;;14.16;89.61;101221.34;5013097;28;20659;-70
2023/08/09 07:11:37;;;;;;;10.43;9.87;;;;;;;14.17;89.77;101235.66;5012899;28;20243;-70
2023/08/09 07:14:05;;;;;;;15.47;10.53;;;;;;;14.26;89.52;101231.94;5013239;28;20220;-70
2023/08/09 07:16:31;;;;;;;11.47;10.50;;;;;;;14.33;89.29;101238.38;5017008;28;20196;-70
2023/08/09 07:18:57;;;;;;;10.30;9.67;;;;;;;14.41;87.56;101242.97;5016923;28;20197;-70
2023/08/09 07:21:26;;;;;;;11.60;10.47;;;;;;;14.42;86.28;101245.50;5016653;28;20235;-70
2023/08/09 07:23:52;;;;;;;10.07;9.53;;;;;;;14.38;85.45;101243.31;5016582;28;20259;-70
2023/08/09 07:26:24;;;;;;;9.10;8.57;;;;;;;14.20;86.27;101251.44;5017153;28;20260;-70
2023/08/09 07:28:51;;;;;;;10.47;9.37;;;;;;;14.21;86.89;101258.50;5016817;28;20675;-70
2023/08/09 07:31:19;;;;;;;13.23;9.57;;;;;;;14.36;86.74;101256.06;5016446;28;20195;-70
2023/08/09 07:33:47;;;;;;;11.93;10.93;;;;;;;14.34;86.42;101261.56;5016308;28;20632;-70
2023/08/09 07:36:13;;;;;;;13.67;11.87;;;;;;;14.33;86.38;101257.22;5016450;28;20188;-70
2023/08/09 07:38:40;;;;;;;12.27;10.27;;;;;;;14.44;85.73;101266.84;5016359;28;20671;-70
2023/08/09 07:41:07;;;;;;;16.47;10.03;;;;;;;14.46;86.37;101262.16;4998799;28;20555;-70
2023/08/09 07:43:33;;;;;;;11.53;10.60;;;;;;;14.56;87.07;101263.69;5016183;28;20212;-70
2023/08/09 07:46:03;;;;;;;33.30;10.17;;;;;;;14.60;86.25;101270.44;5016224;28;20189;-70
2023/08/09 07:48:30;;;;;;;10.80;10.10;;;;;;;14.64;85.48;101273.63;5016155;28;20204;-70
2023/08/09 07:50:57;;;;;;;10.03;9.10;;;;;;;14.70;85.37;101267.59;5016121;28;20234;-70
2023/08/09 07:53:23;;;;;;;9.83;9.03;;;;;;;14.65;84.27;101264.56;5015907;28;20685;-70
2023/08/09 07:55:51;;;;;;;9.40;8.63;;;;;;;14.70;84.22;101277.50;5016286;28;20185;-70
2023/08/09 07:58:17;;;;;;;9.13;8.57;;;;;;;14.57;84.31;101276.16;5015940;28;20189;-70
2023/08/09 08:00:43;;;;;;;8.80;8.10;;;;;;;14.52;84.75;101283.84;5016157;28;20192;-70
2023/08/09 08:03:16;;;;;;;8.97;8.47;;;;;;;14.57;84.77;101289.59;5015828;28;20173;-70
2023/08/09 08:05:43;;;;;;;9.07;8.57;;;;;;;14.62;84.95;101292.66;5015793;28;20193;-70
2023/08/09 08:08:14;;;;;;;9.30;8.63;;;;;;;14.75;84.83;101294.88;5016336;28;20204;-70
2023/08/09 08:10:41;;;;;;;8.67;8.23;;;;;;;14.72;85.23;101297.03;5015629;28;20200;-70
2023/08/09 08:13:07;;;;;;;9.57;8.93;;;;;;;14.82;85.82;101297.72;5015435;28;20266;-70
2023/08/09 08:15:39;;;;;;;9.50;8.93;;;;;;;14.97;84.75;101301.47;5015693;28;20203;-70
2023/08/09 08:18:06;;;;;;;10.53;9.03;;;;;;;15.08;84.83;101301.13;5015429;28;20193;-70
2023/08/09 08:20:33;;;;;;;10.43;9.83;;;;;;;15.04;84.90;101297.09;5015424;28;20197;-69
2023/08/09 08:23:00;;;;;;;10.33;9.57;;;;;;;15.03;84.97;101306.19;5015677;28;20511;-69
2023/08/09 08:25:26;;;;;;;9.00;8.50;;;;;;;15.09;83.95;101308.22;5015261;28;20185;-69
2023/08/09 08:27:53;;;;;;;9.70;7.50;;;;;;;15.05;83.22;101305.03;5015438;28;20246;-69
2023/08/09 08:30:20;;;;;;;9.73;8.33;;;;;;;15.11;83.08;101308.06;5015619;28;20184;-69
2023/08/09 08:32:49;;;;;;;10.47;9.57;;;;;;;14.99;83.73;101305.66;5014153;28;20185;-69
2023/08/09 08:35:20;;;;;;;9.37;8.63;;;;;;;15.09;82.95;101309.06;5015289;28;20585;-69
2023/08/09 08:37:49;;;;;;;13.80;12.40;;;;;;;15.19;82.88;101299.97;5015535;28;20197;-69
2023/08/09 08:40:20;;;;;;;22.33;14.83;;;;;;;15.14;82.11;101300.47;5015201;28;20193;-69
2023/08/09 08:42:48;;;;;;;13.63;11.43;;;;;;;15.13;81.20;101296.09;5015207;28;20173;-69
2023/08/09 08:45:15;;;;;;;13.50;11.20;;;;;;;15.20;81.36;101302.50;5015014;28;20220;-69
2023/08/09 08:47:44;;;;;;;10.83;9.73;;;;;;;15.20;81.10;101298.94;5015066;28;20192;-69
2023/08/09 08:50:13;;;;;;;10.70;9.70;;;;;;;15.22;80.89;101303.19;5015043;28;20235;-69
2023/08/09 08:52:51;;;;;;;10.27;9.47;;;;;;;15.17;81.34;101292.06;5014914;28;20710;-69
2023/08/09 08:55:18;;;;;;;12.60;10.03;;;;;;;15.23;81.08;101294.09;5015162;28;20299;-69
2023/08/09 08:57:47;;;;;;;9.00;8.37;;;;;;;15.45;81.21;101298.78;5014893;28;20192;-69
2023/08/09 09:00:17;;;;;;;13.97;9.63;;;;;;;15.51;80.88;101311.63;5015132;28;20528;-69
2023/08/09 09:02:52;;;;;;;11.37;10.17;;;;;;;15.42;81.38;101315.31;5015010;28;20635;-68
2023/08/09 09:05:19;;;;;;;11.57;9.40;;;;;;;15.44;81.92;101315.13;5014568;28;20208;-68
2023/08/09 09:07:50;;;;;;;11.00;9.93;;;;;;;15.41;81.58;101324.38;5014733;28;20196;-68
2023/08/09 09:10:19;;;;;;;17.13;13.20;;;;;;;15.38;81.24;101330.13;5015225;28;20540;-70
2023/08/09 09:12:49;;;;;;;24.50;13.30;;;;;;;15.47;81.31;101318.34;5014419;28;20207;-70
2023/08/09 09:15:17;;;;;;;26.20;13.43;;;;;;;15.54;80.50;101324.75;5014515;28;20794;-69
2023/08/09 09:17:45;;;;;;;22.97;13.00;;;;;;;15.57;79.72;101325.44;5014512;28;20559;-69
2023/08/09 09:20:23;;;;;;;28.47;14.57;;;;;;;15.51;79.23;101325.09;5015037;28;20654;-69
2023/08/09 09:22:53;;;;;;;25.20;14.77;;;;;;;15.47;78.93;101329.13;5014738;28;20184;-69
2023/08/09 09:25:22;;;;;;;41.50;18.80;;;;;;;15.50;80.46;101330.66;5014329;28;20270;-69
2023/08/09 09:27:54;;;;;;;45.83;18.73;;;;;;;15.50;80.39;101336.88;5014671;28;20185;-69
2023/08/09 09:30:24;;;;;;;39.40;19.57;;;;;;;15.59;79.73;101328.78;5014336;28;20587;-69
2023/08/09 09:32:54;;;;;;;41.17;19.10;;;;;;;15.60;79.12;101330.47;5014195;28;20177;-69
2023/08/09 09:35:22;;;;;;;27.20;16.53;;;;;;;15.76;80.22;101333.16;5014106;28;20255;-69
2023/08/09 09:37:51;;;;;;;36.53;16.73;;;;;;;15.65;80.78;101336.22;5013670;28;20195;-69
2023/08/09 09:40:36;;;;;;;36.53;17.20;;;;;;;16.01;81.51;101334.81;5014458;28;20181;-69
2023/08/09 09:43:04;;;;;;;38.93;22.27;;;;;;;15.99;79.21;101334.16;5014099;28;20517;-68
2023/08/09 09:45:32;;;;;;;47.47;23.00;;;;;;;16.07;78.15;101338.69;5014081;28;20558;-68
2023/08/09 09:48:01;;;;;;;33.90;19.60;;;;;;;16.14;77.26;101340.50;5014228;28;20227;-68
2023/08/09 09:50:28;;;;;;;32.53;17.13;;;;;;;16.14;76.94;101339.66;5013958;28;20192;-68
2023/08/09 09:52:55;;;;;;;29.33;16.10;;;;;;;16.19;76.99;101348.94;5013876;28;20180;-69
2023/08/09 09:55:27;;;;;;;28.77;16.83;;;;;;;16.32;76.79;101353.78;5013814;28;20208;-68
2023/08/09 09:57:56;;;;;;;25.77;16.70;;;;;;;16.28;77.07;101350.59;5014196;28;20231;-69
2023/08/09 10:00:25;;;;;;;27.50;17.87;;;;;;;16.34;75.66;101352.56;5014154;28;20173;-68
2023/08/09 10:02:53;;;;;;;42.33;18.50;;;;;;;16.38;77.62;101364.72;5014105;28;20188;-68
2023/08/09 10:05:37;;;;;;;32.30;19.60;;;;;;;16.37;76.87;101357.66;5013667;28;20301;-68
2023/08/09 10:08:06;;;;;;;36.93;18.47;;;;;;;16.32;78.06;101360.03;5014311;28;20176;-69
2023/08/09 10:10:42;;;;;;;33.67;17.87;;;;;;;16.45;78.16;101364.88;5013679;28;20177;-69
2023/08/09 10:13:11;;;;;;;24.93;17.03;;;;;;;16.66;75.81;101361.59;5013350;28;20211;-69
2023/08/09 10:15:41;;;;;;;24.87;16.27;;;;;;;16.58;77.04;101362.50;5013953;28;20214;-68
2023/08/09 10:18:15;;;;;;;23.60;16.97;;;;;;;16.66;76.73;101361.59;5013655;28;20199;-68
2023/08/09 10:20:47;;;;;;;23.97;16.50;;;;;;;16.70;77.30;101371.88;5014108;28;20180;-68
2023/08/09 10:23:22;;;;;;;24.40;18.27;;;;;;;16.78;76.10;101377.25;5013535;28;20181;-68
2023/08/09 10:25:50;;;;;;;30.57;18.30;;;;;;;16.82;74.33;101373.16;5013551;28;20181;-68
2023/08/09 10:28:45;;;;;;;35.17;18.10;;;;;;;16.83;74.24;101371.31;5013770;28;20599;-68
2023/08/09 10:31:13;;;;;;;27.03;17.93;;;;;;;16.87;74.82;101375.34;5013783;28;20188;-68
2023/08/09 10:34:10;;;;;;;22.17;18.30;;;;;;;16.85;72.51;101366.56;5013526;28;20216;-68
2023/08/09 10:36:37;;;;;;;21.27;18.47;;;;;;;16.93;74.43;101373.81;5014009;28;20177;-68
2023/08/09 10:39:14;;;;;;;20.20;18.10;;;;;;;16.88;75.41;101367.06;5013463;28;20231;-68
2023/08/09 10:41:58;;;;;;;28.67;19.50;;;;;;;16.98;74.10;101374.09;5013445;28;20176;-68
2023/08/09 10:44:32;;;;;;;19.03;17.20;;;;;;;17.02;72.94;101375.41;5013311;28;20266;-69
2023/08/09 10:47:13;;;;;;;18.53;16.60;;;;;;;16.98;72.91;101366.00;5013653;28;20239;-68
2023/08/09 10:49:49;;;;;;;20.43;17.03;;;;;;;17.18;71.46;101357.28;5016215;28;20623;-68
2023/08/09 10:52:17;;;;;;;17.90;15.60;;;;;;;17.21;70.25;101353.34;5017806;28;20693;-68
2023/08/09 10:55:29;;;;;;;16.20;14.70;;;;;;;17.28;70.11;101359.72;5017340;28;20220;-68
2023/08/09 10:57:58;;;;;;;18.80;16.33;;;;;;;17.28;70.17;101355.16;5017204;28;20192;-68
2023/08/09 11:00:26;;;;;;;17.37;15.50;;;;;;;17.33;71.35;101358.16;5017395;28;20651;-68
2023/08/09 11:02:57;;;;;;;21.60;16.60;;;;;;;17.38;72.23;101359.50;5017046;28;20217;-68
2023/08/09 11:05:27;;;;;;;16.87;15.33;;;;;;;17.33;72.74;101360.88;5017247;28;20263;-68
2023/08/09 11:07:56;;;;;;;18.07;16.30;;;;;;;17.36;71.46;101359.66;5016937;28;20188;-68
2023/08/09 11:10:36;;;;;;;24.73;16.03;;;;;;;17.35;70.79;101363.41;5016892;28;20219;-68
2023/08/09 11:13:11;;;;;;;14.67;13.40;;;;;;;17.48;69.13;101374.47;5016727;28;20701;-68
2023/08/09 11:15:41;;;;;;;12.50;11.47;;;;;;;17.46;66.70;101365.66;5016858;28;20240;-67
2023/08/09 11:18:07;;;;;;;12.37;11.40;;;;;;;17.40;68.40;101377.19;5017033;28;20555;-67
2023/08/09 11:20:34;;;;;;;15.40;14.03;;;;;;;17.62;68.21;101367.44;5016708;28;20215;-67
2023/08/09 11:23:02;;;;;;;14.37;13.37;;;;;;;17.66;69.09;101372.28;5016623;28;20212;-68
2023/08/09 11:25:31;;;;;;;15.13;12.27;;;;;;;17.70;67.74;101370.91;5016646;28;20654;-67